Time;durP1;ratioP1;P1;durP2;ratioP2;P2;SDS_P1;SDS_P2;PMS_P1;PMS_P2;Temp;Humidity;BMP_temperature;BMP_pressure;BME280_temperature;BME280_humidity;BME280_pressure;Samples;Min_cycle;Max_cycle;Signal;HPM_P1;HPM_P2
2022/11/30 00:00:14;;;;;;;27.87;18.53;;;;;;;6.60;90.55;100983.91;5029318;28;20410;-77
2022/11/30 00:02:40;;;;;;;26.23;17.83;;;;;;;6.56;91.37;100980.44;5029604;28;20213;-77
2022/11/30 00:05:09;;;;;;;24.97;17.70;;;;;;;6.58;91.13;100977.84;5030227;28;20698;-78
2022/11/30 00:07:36;;;;;;;27.57;18.40;;;;;;;6.58;91.26;100975.25;5029472;28;20610;-78
2022/11/30 00:10:03;;;;;;;26.63;17.80;;;;;;;6.54;92.05;100974.38;5028597;28;20210;-78
2022/11/30 00:12:29;;;;;;;27.13;17.83;;;;;;;6.53;91.66;100979.53;5030617;28;20671;-78
2022/11/30 00:14:56;;;;;;;21.30;16.30;;;;;;;6.58;91.17;100980.44;5031492;28;20206;-78
2022/11/30 00:17:22;;;;;;;25.47;17.90;;;;;;;6.56;91.13;100982.13;5031419;28;20221;-78
2022/11/30 00:19:49;;;;;;;27.73;18.00;;;;;;;6.57;90.99;100979.56;5032460;28;20228;-77
2022/11/30 00:22:17;;;;;;;29.73;18.73;;;;;;;6.54;91.24;100981.25;5030853;28;20296;-77
2022/11/30 00:24:43;;;;;;;25.40;18.57;;;;;;;6.49;91.98;100970.00;5031960;28;20482;-78
2022/11/30 00:27:10;;;;;;;30.10;18.10;;;;;;;6.48;92.42;100957.88;5030927;28;20250;-78
2022/11/30 00:29:36;;;;;;;32.30;18.40;;;;;;;6.52;92.44;100954.44;5031242;28;20221;-78
2022/11/30 00:32:03;;;;;;;25.73;18.57;;;;;;;6.53;92.08;100954.47;5030842;28;20198;-78
2022/11/30 00:34:29;;;;;;;25.87;18.57;;;;;;;6.54;91.45;100960.50;5032610;28;20218;-78
2022/11/30 00:36:56;;;;;;;33.57;18.40;;;;;;;6.55;92.27;100959.66;5030140;28;20233;-78
2022/11/30 00:39:24;;;;;;;29.80;18.47;;;;;;;6.50;91.81;100954.47;5031201;28;20439;-78
2022/11/30 00:41:50;;;;;;;28.10;18.83;;;;;;;6.54;92.40;100948.44;5031309;28;20575;-78
2022/11/30 00:44:17;;;;;;;23.83;17.40;;;;;;;6.53;92.17;100957.06;5031374;28;20407;-78
2022/11/30 00:46:43;;;;;;;30.27;18.30;;;;;;;6.55;92.13;100962.25;5030951;28;20236;-78
2022/11/30 00:49:10;;;;;;;27.73;18.30;;;;;;;6.56;92.53;100961.38;5030948;28;20198;-78
2022/11/30 00:51:37;;;;;;;30.90;17.80;;;;;;;6.53;92.15;100957.06;5030865;28;20219;-78
2022/11/30 00:54:04;;;;;;;32.97;19.67;;;;;;;6.55;91.95;100957.94;5029846;28;20205;-78
2022/11/30 00:56:32;;;;;;;24.57;17.40;;;;;;;6.48;92.93;100944.91;5036175;28;20221;-78
2022/11/30 00:58:58;;;;;;;27.00;17.67;;;;;;;6.47;93.61;100933.69;5030787;28;20581;-78
2022/11/30 01:01:25;;;;;;;29.67;18.87;;;;;;;6.52;93.23;100936.28;5032151;28;20194;-78
2022/11/30 01:03:52;;;;;;;30.97;18.70;;;;;;;6.51;92.48;100934.56;5029999;28;20213;-78
2022/11/30 01:06:18;;;;;;;26.87;18.20;;;;;;;6.53;92.38;100943.22;5030519;28;20217;-78
2022/11/30 01:08:45;;;;;;;27.60;17.70;;;;;;;6.54;92.47;100934.56;5029850;28;20661;-77
2022/11/30 01:11:15;;;;;;;29.97;18.27;;;;;;;6.53;92.82;100938.91;5030484;28;20202;-78
2022/11/30 01:13:43;;;;;;;27.63;18.40;;;;;;;6.54;91.89;100944.94;5030433;28;20229;-78
2022/11/30 01:16:14;;;;;;;31.57;19.30;;;;;;;6.50;92.08;100940.59;5030234;28;20214;-78
2022/11/30 01:18:41;;;;;;;28.20;18.30;;;;;;;6.49;93.02;100933.69;5029937;28;20584;-77
2022/11/30 01:21:10;;;;;;;28.23;18.83;;;;;;;6.51;93.65;100921.59;5030006;28;20210;-78
2022/11/30 01:23:37;;;;;;;31.40;18.20;;;;;;;6.49;92.97;100913.81;5033840;28;20225;-78
2022/11/30 01:26:03;;;;;;;32.37;18.10;;;;;;;6.52;93.37;100925.91;5034144;28;20711;-78
2022/11/30 01:28:29;;;;;;;25.60;18.07;;;;;;;6.51;93.36;100926.78;5033902;28;20226;-78
2022/11/30 01:30:59;;;;;;;27.63;17.30;;;;;;;6.53;93.21;100932.84;5034019;28;20220;-78
2022/11/30 01:33:26;;;;;;;31.93;19.90;;;;;;;6.51;93.08;100931.97;5033249;28;20210;-78
2022/11/30 01:36:00;;;;;;;23.70;17.07;;;;;;;6.48;93.18;100918.97;5033683;28;20222;-78
2022/11/30 01:38:26;;;;;;;27.17;18.47;;;;;;;6.47;93.52;100912.94;5033827;28;20683;-78
2022/11/30 01:40:53;;;;;;;25.10;17.37;;;;;;;6.48;94.25;100913.81;5033422;28;20210;-79
2022/11/30 01:43:20;;;;;;;24.37;17.87;;;;;;;6.45;93.73;100908.63;5033577;28;20209;-78
2022/11/30 01:45:49;;;;;;;20.07;16.57;;;;;;;6.44;94.02;100912.94;5033763;28;20206;-78
2022/11/30 01:48:17;;;;;;;20.37;16.13;;;;;;;6.44;93.64;100915.53;5033031;28;20234;-78
2022/11/30 01:50:45;;;;;;;22.40;17.17;;;;;;;6.47;93.62;100917.25;5033652;28;20213;-78
2022/11/30 01:53:12;;;;;;;23.07;16.60;;;;;;;6.41;93.41;100920.69;5034473;28;20217;-78
2022/11/30 01:55:42;;;;;;;23.37;16.13;;;;;;;6.45;94.12;100914.66;5034228;28;20682;-78
2022/11/30 01:58:11;;;;;;;24.63;16.60;;;;;;;6.47;93.84;100912.94;5033861;28;20592;-78
2022/11/30 02:00:39;;;;;;;19.97;16.17;;;;;;;6.47;93.35;100918.13;5032984;28;20572;-79
2022/11/30 02:03:10;;;;;;;23.17;16.27;;;;;;;6.47;93.60;100923.31;5032906;28;20217;-78
2022/11/30 02:05:40;;;;;;;20.20;15.60;;;;;;;6.44;94.27;100922.41;5033430;28;20703;-78
2022/11/30 02:08:09;;;;;;;21.23;16.80;;;;;;;6.41;93.99;100928.47;5034805;28;20233;-79
2022/11/30 02:10:38;;;;;;;18.97;16.53;;;;;;;6.41;94.31;100920.69;5048788;22;20715;-75
2022/11/30 02:13:31;;;;;;;18.93;14.97;;;;;;;6.44;94.34;100907.75;5032559;28;20205;-75
2022/11/30 02:16:05;;;;;;;24.17;16.33;;;;;;;6.44;93.98;100917.22;5032546;28;20210;-75
2022/11/30 02:18:43;;;;;;;20.30;16.30;;;;;;;6.45;93.14;100918.97;5014261;28;20219;-75
2022/11/30 02:21:15;;;;;;;20.10;15.20;;;;;;;6.45;93.81;100925.03;5014126;28;20209;-75
2022/11/30 02:24:01;;;;;;;17.70;15.80;;;;;;;6.45;93.99;100921.59;5013983;28;20218;-75
2022/11/30 02:26:40;;;;;;;16.53;14.83;;;;;;;6.43;93.79;100924.16;5013714;28;20223;-75
2022/11/30 02:29:16;;;;;;;16.80;15.10;;;;;;;6.44;94.14;100920.72;5013960;28;20223;-75
2022/11/30 02:31:49;;;;;;;17.60;13.60;;;;;;;6.40;94.51;100918.06;5013662;28;20214;-75
2022/11/30 02:34:17;;;;;;;15.80;14.13;;;;;;;6.40;94.10;100900.78;5013553;28;20215;-75
2022/11/30 02:36:46;;;;;;;16.53;14.43;;;;;;;6.38;94.64;100897.31;5013923;28;20583;-75
2022/11/30 02:39:12;;;;;;;16.50;14.80;;;;;;;6.39;94.71;100896.47;5013891;28;20214;-75
2022/11/30 02:41:39;;;;;;;15.97;14.23;;;;;;;6.40;94.88;100889.56;5013206;28;20209;-75
2022/11/30 02:44:08;;;;;;;17.97;14.37;;;;;;;6.36;94.89;100894.75;5013438;28;20680;-75
2022/11/30 02:46:47;;;;;;;20.23;15.67;;;;;;;6.43;95.07;100895.63;5013408;28;20226;-75
2022/11/30 02:49:21;;;;;;;18.90;15.20;;;;;;;6.45;94.68;100896.50;5013401;28;20241;-75
2022/11/30 02:51:49;;;;;;;16.60;14.80;;;;;;;6.44;94.61;100905.16;5013396;28;20637;-75
2022/11/30 02:54:15;;;;;;;18.07;15.33;;;;;;;6.40;95.48;100903.38;5013467;28;20213;-76
2022/11/30 02:56:42;;;;;;;22.57;16.30;;;;;;;6.41;94.61;100902.53;5013249;28;20235;-75
2022/11/30 02:59:08;;;;;;;20.90;16.10;;;;;;;6.41;94.52;100907.72;5013282;28;20213;-75
2022/11/30 03:01:37;;;;;;;21.53;16.70;;;;;;;6.42;94.97;100906.00;5012900;28;20211;-75
2022/11/30 03:04:03;;;;;;;21.00;16.40;;;;;;;6.44;94.87;100906.88;5013714;28;20221;-75
2022/11/30 03:06:30;;;;;;;18.53;16.10;;;;;;;6.41;95.26;100909.47;5013328;28;20226;-75
2022/11/30 03:08:57;;;;;;;20.10;15.77;;;;;;;6.44;95.01;100909.47;5013119;28;20230;-76
2022/11/30 03:11:24;;;;;;;17.80;15.03;;;;;;;6.44;94.53;100912.06;5012827;28;20218;-75
2022/11/30 03:13:51;;;;;;;16.47;14.77;;;;;;;6.45;94.64;100918.97;5013267;28;20211;-75
2022/11/30 03:16:17;;;;;;;19.23;14.43;;;;;;;6.47;93.97;100915.53;5012733;28;20206;-75
2022/11/30 03:18:45;;;;;;;19.70;15.07;;;;;;;6.45;94.34;100924.16;5012720;28;20573;-75
2022/11/30 03:21:12;;;;;;;15.97;14.30;;;;;;;6.46;94.08;100928.47;5012866;28;20214;-75
2022/11/30 03:23:39;;;;;;;18.57;15.60;;;;;;;6.44;95.01;100927.59;5012919;28;20210;-76
2022/11/30 03:26:08;;;;;;;20.60;15.37;;;;;;;6.47;94.32;100938.88;5012723;28;20213;-75
2022/11/30 03:28:35;;;;;;;19.77;15.70;;;;;;;6.44;94.49;100937.97;5013074;28;20235;-75
2022/11/30 03:31:01;;;;;;;19.77;15.93;;;;;;;6.42;93.80;100935.41;5012358;28;20203;-75
2022/11/30 03:33:28;;;;;;;21.90;15.30;;;;;;;6.43;94.35;100931.06;5012600;28;20214;-75
2022/11/30 03:36:04;;;;;;;23.10;17.17;;;;;;;6.43;94.92;100934.53;5012744;28;20202;-75
2022/11/30 03:38:31;;;;;;;18.50;15.30;;;;;;;6.44;94.81;100931.09;5012760;28;20213;-75
2022/11/30 03:41:01;;;;;;;20.13;15.47;;;;;;;6.37;95.02;100918.94;5012519;28;20280;-75
2022/11/30 03:43:28;;;;;;;22.07;15.87;;;;;;;6.38;95.11;100915.47;5012451;28;20206;-75
2022/11/30 03:45:54;;;;;;;20.13;16.27;;;;;;;6.37;95.45;100913.75;5012043;28;20207;-75
2022/11/30 03:48:21;;;;;;;20.30;16.53;;;;;;;6.36;95.91;100915.47;5012409;28;20238;-75
2022/11/30 03:50:49;;;;;;;19.63;15.60;;;;;;;6.42;95.31;100924.13;5012477;28;20206;-76
2022/11/30 03:53:17;;;;;;;18.93;16.13;;;;;;;6.43;94.93;100928.47;5012357;28;20213;-75
2022/11/30 03:55:43;;;;;;;18.70;16.00;;;;;;;6.44;94.31;100933.69;5012208;28;20696;-76
2022/11/30 03:58:10;;;;;;;20.27;16.50;;;;;;;6.44;94.96;100937.97;5012024;28;20226;-75
2022/11/30 04:00:36;;;;;;;21.63;16.67;;;;;;;6.35;95.57;100942.25;5012215;28;20210;-75
2022/11/30 04:03:03;;;;;;;22.70;17.13;;;;;;;6.39;94.87;100937.97;5012089;28;20210;-75
2022/11/30 04:05:30;;;;;;;20.90;16.50;;;;;;;6.40;95.11;100944.00;5012176;28;20571;-75
2022/11/30 04:07:56;;;;;;;24.57;17.67;;;;;;;6.40;94.85;100942.28;5012056;28;20607;-75
2022/11/30 04:10:24;;;;;;;18.37;15.23;;;;;;;6.38;95.38;100943.13;5011873;28;20222;-75
2022/11/30 04:12:50;;;;;;;22.70;17.80;;;;;;;6.40;95.25;100944.88;5011928;28;20202;-75
2022/11/30 04:15:17;;;;;;;22.33;16.77;;;;;;;6.31;94.95;100931.88;5011991;28;20221;-76
2022/11/30 04:17:43;;;;;;;18.50;16.57;;;;;;;6.32;95.55;100924.09;5012007;28;20241;-75
2022/11/30 04:20:10;;;;;;;21.67;17.17;;;;;;;6.33;96.06;100924.97;5011883;28;20212;-76
2022/11/30 04:22:38;;;;;;;20.57;17.20;;;;;;;6.37;95.09;100931.91;5011820;28;20300;-75
2022/11/30 04:25:05;;;;;;;17.57;15.83;;;;;;;6.42;95.39;100935.41;5012061;28;20202;-75
2022/11/30 04:27:33;;;;;;;21.57;18.00;;;;;;;6.43;95.08;100938.84;5011871;28;20226;-76
2022/11/30 04:29:59;;;;;;;18.43;15.83;;;;;;;6.45;95.22;100944.91;5011693;28;20706;-76
2022/11/30 04:32:26;;;;;;;19.77;16.87;;;;;;;6.44;95.13;100948.34;5011985;28;20686;-75
2022/11/30 04:34:52;;;;;;;18.17;16.23;;;;;;;6.43;94.39;100951.81;5011936;28;20494;-76
2022/11/30 04:37:19;;;;;;;22.57;17.57;;;;;;;6.39;95.61;100945.75;5011622;28;20256;-75
2022/11/30 04:39:45;;;;;;;20.40;16.77;;;;;;;6.40;95.22;100942.28;5011897;28;20206;-75
2022/11/30 04:42:12;;;;;;;21.20;16.23;;;;;;;6.40;94.82;100933.63;5011777;28;20213;-75
2022/11/30 04:44:40;;;;;;;21.73;17.53;;;;;;;6.36;95.52;100944.00;5011739;28;20699;-76
2022/11/30 04:47:06;;;;;;;19.37;16.77;;;;;;;6.41;94.95;100946.63;5011728;28;20230;-75
2022/11/30 04:49:32;;;;;;;23.07;16.87;;;;;;;6.40;95.21;100949.19;5011616;28;20232;-75
2022/11/30 04:51:59;;;;;;;23.37;17.40;;;;;;;6.41;94.96;100948.34;5011452;28;20556;-75
2022/11/30 04:54:25;;;;;;;22.80;16.83;;;;;;;6.35;95.52;100944.84;5011834;28;20210;-75
2022/11/30 04:56:52;;;;;;;22.60;17.03;;;;;;;6.37;95.31;100947.47;5012891;28;20237;-75
2022/11/30 04:59:18;;;;;;;18.07;15.43;;;;;;;6.39;95.31;100948.34;5015389;28;20202;-75
2022/11/30 05:01:46;;;;;;;18.63;15.80;;;;;;;6.38;95.87;100941.41;5015104;28;20582;-75
2022/11/30 05:04:13;;;;;;;22.57;17.13;;;;;;;6.36;95.25;100945.72;5015128;28;20211;-76
2022/11/30 05:06:39;;;;;;;22.10;15.73;;;;;;;6.40;95.26;100944.88;5015361;28;20617;-76
2022/11/30 05:09:06;;;;;;;25.23;16.87;;;;;;;6.42;95.21;100950.97;5015250;28;20237;-76
2022/11/30 05:11:33;;;;;;;23.13;17.37;;;;;;;6.39;95.70;100947.47;5014744;28;20740;-75
2022/11/30 05:13:59;;;;;;;26.23;16.83;;;;;;;6.39;95.97;100950.94;5015168;28;20221;-75
2022/11/30 05:16:26;;;;;;;22.30;17.77;;;;;;;6.41;95.49;100962.19;5014693;28;20234;-75
2022/11/30 05:18:54;;;;;;;21.37;16.80;;;;;;;6.39;95.24;100957.84;5015558;28;20207;-75
2022/11/30 05:21:20;;;;;;;19.57;15.87;;;;;;;6.41;95.19;100964.78;5014938;28;20685;-75
2022/11/30 05:23:47;;;;;;;22.00;15.53;;;;;;;6.41;95.09;100963.91;5015081;28;20229;-75
2022/11/30 05:26:14;;;;;;;17.57;15.30;;;;;;;6.39;94.80;100969.06;5014893;28;20210;-75
2022/11/30 05:28:40;;;;;;;19.50;16.07;;;;;;;6.38;95.24;100969.91;5014642;28;20752;-76
2022/11/30 05:31:07;;;;;;;25.07;17.10;;;;;;;6.38;95.35;100969.91;5014491;28;20695;-75
2022/11/30 05:33:33;;;;;;;20.63;16.87;;;;;;;6.34;96.10;100965.56;5014817;28;20229;-76
2022/11/30 05:36:01;;;;;;;27.37;17.67;;;;;;;6.38;95.60;100966.47;5014809;28;20206;-75
2022/11/30 05:38:28;;;;;;;26.27;18.37;;;;;;;6.35;95.82;100975.97;5014637;28;20203;-75
2022/11/30 05:41:00;;;;;;;25.87;19.27;;;;;;;6.34;96.00;100975.94;5014542;28;20211;-75
2022/11/30 05:43:26;;;;;;;26.13;18.10;;;;;;;6.35;95.55;100965.59;5014522;28;20754;-76
2022/11/30 05:45:59;;;;;;;28.47;18.37;;;;;;;6.35;95.95;100975.09;5014747;28;20221;-75
2022/11/30 05:48:26;;;;;;;24.77;17.47;;;;;;;6.35;95.16;100977.69;5014408;28;20238;-76
2022/11/30 05:50:52;;;;;;;30.83;18.67;;;;;;;6.32;96.26;100982.84;5014288;28;20210;-75
2022/11/30 05:53:20;;;;;;;30.80;19.17;;;;;;;6.38;95.40;100979.44;5014436;28;20589;-76
2022/11/30 05:55:46;;;;;;;28.20;17.47;;;;;;;6.36;95.70;100980.31;5014323;28;20215;-75
2022/11/30 05:58:13;;;;;;;33.60;18.17;;;;;;;6.38;95.53;100985.47;5014037;28;20326;-76
2022/11/30 06:00:39;;;;;;;28.13;19.23;;;;;;;6.29;95.66;100991.47;5014080;28;20210;-76
2022/11/30 06:03:06;;;;;;;32.37;18.77;;;;;;;6.32;96.10;100985.44;5014520;28;20217;-76
2022/11/30 06:05:35;;;;;;;30.17;18.90;;;;;;;6.31;96.10;100984.56;5014538;28;20215;-75
2022/11/30 06:08:01;;;;;;;29.17;17.93;;;;;;;6.31;96.38;100973.34;5013529;28;20316;-75
2022/11/30 06:10:29;;;;;;;30.93;19.10;;;;;;;6.34;96.06;100973.34;5013779;28;20229;-75
2022/11/30 06:12:55;;;;;;;31.63;19.37;;;;;;;6.36;95.63;100982.91;5013921;28;20206;-75
2022/11/30 06:15:22;;;;;;;28.07;17.80;;;;;;;6.38;95.55;100992.41;5013707;28;20686;-75
2022/11/30 06:17:48;;;;;;;29.17;18.43;;;;;;;6.38;95.42;100985.47;5014297;28;20242;-76
2022/11/30 06:20:15;;;;;;;32.10;19.23;;;;;;;6.34;95.95;100989.81;5013718;28;20199;-76
2022/11/30 06:22:45;;;;;;;28.23;17.33;;;;;;;6.38;96.03;100995.84;5013710;28;20271;-76
2022/11/30 06:25:11;;;;;;;27.10;17.43;;;;;;;6.32;96.45;100999.28;5014230;28;20207;-76
2022/11/30 06:27:39;;;;;;;29.20;18.40;;;;;;;6.33;95.88;100997.56;5013784;28;20234;-75
2022/11/30 06:30:07;;;;;;;26.10;19.07;;;;;;;6.32;96.66;100991.50;5013515;28;20242;-75
2022/11/30 06:32:34;;;;;;;28.63;18.30;;;;;;;6.36;96.14;100993.28;5013674;28;20237;-75
2022/11/30 06:35:00;;;;;;;26.67;17.43;;;;;;;6.34;96.20;100997.56;5013488;28;20206;-75
2022/11/30 06:37:26;;;;;;;25.73;17.40;;;;;;;6.35;96.14;101003.63;5013470;28;20229;-75
2022/11/30 06:39:53;;;;;;;31.80;18.23;;;;;;;6.25;96.36;101002.69;5013406;28;20699;-75
2022/11/30 06:42:20;;;;;;;32.13;18.53;;;;;;;6.31;95.93;101005.31;5013502;28;20213;-75
2022/11/30 06:44:48;;;;;;;30.47;19.70;;;;;;;6.34;96.01;101007.06;5013684;28;20217;-74
2022/11/30 06:47:14;;;;;;;30.77;18.87;;;;;;;6.35;96.03;101011.41;5013300;28;20227;-75
2022/11/30 06:49:41;;;;;;;26.30;17.37;;;;;;;6.38;96.13;101020.91;5013176;28;20704;-75
2022/11/30 06:52:07;;;;;;;27.57;18.53;;;;;;;6.33;95.94;101021.75;5013342;28;20210;-75
2022/11/30 06:54:33;;;;;;;30.67;19.73;;;;;;;6.35;95.94;101021.78;5013387;28;20224;-74
2022/11/30 06:57:00;;;;;;;26.43;18.67;;;;;;;6.35;96.48;101024.38;5013245;28;20233;-74
2022/11/30 06:59:26;;;;;;;32.73;18.93;;;;;;;6.36;95.50;101026.09;5013249;28;20207;-75
2022/11/30 07:01:54;;;;;;;33.87;19.20;;;;;;;6.35;96.16;101027.81;5012881;28;20215;-74
2022/11/30 07:04:21;;;;;;;35.33;19.93;;;;;;;6.34;96.07;101032.97;5013048;28;20240;-75
2022/11/30 07:06:47;;;;;;;30.57;18.87;;;;;;;6.32;96.09;101025.22;5013152;28;20222;-74
2022/11/30 07:09:14;;;;;;;34.20;19.20;;;;;;;6.28;96.46;101030.34;5012958;28;20238;-74
2022/11/30 07:11:41;;;;;;;27.73;18.27;;;;;;;6.31;96.04;101026.06;5012621;28;20219;-74
2022/11/30 07:14:07;;;;;;;30.37;18.57;;;;;;;6.29;96.26;101029.50;5013129;28;20300;-74
2022/11/30 07:16:34;;;;;;;32.00;19.27;;;;;;;6.31;96.33;101031.25;5012863;28;20233;-75
2022/11/30 07:19:01;;;;;;;35.10;19.80;;;;;;;6.32;96.51;101035.59;5012206;28;20206;-75
2022/11/30 07:21:28;;;;;;;30.10;19.27;;;;;;;6.32;96.14;101045.97;5012485;28;20214;-74
2022/11/30 07:26:39;;;;;;;34.33;19.77;;;;;;;6.26;96.54;101043.28;5012628;28;20230;-74
2022/11/30 07:29:05;;;;;;;32.33;18.13;;;;;;;6.27;96.72;101033.81;5012774;28;20231;-75
2022/11/30 07:31:33;;;;;;;31.60;19.13;;;;;;;6.32;96.90;101034.69;5012533;28;20213;-75
2022/11/30 07:34:06;;;;;;;35.67;20.63;;;;;;;6.33;96.64;101026.94;5012844;28;20215;-75
2022/11/30 07:36:33;;;;;;;42.30;21.00;;;;;;;6.35;96.73;101029.56;5012623;28;20226;-75
2022/11/30 07:39:00;;;;;;;31.37;20.03;;;;;;;6.36;96.53;101034.75;5012464;28;20214;-75
2022/11/30 07:41:27;;;;;;;40.10;20.50;;;;;;;6.32;96.92;101035.59;5012616;28;20236;-75
2022/11/30 07:43:53;;;;;;;35.87;20.07;;;;;;;6.33;96.81;101039.91;5012671;28;20199;-75
2022/11/30 07:46:20;;;;;;;41.40;21.33;;;;;;;6.36;97.40;101031.28;5012329;28;20683;-75
2022/11/30 07:48:46;;;;;;;48.03;22.80;;;;;;;6.37;96.91;101033.03;5012277;28;20206;-75
2022/11/30 07:51:16;;;;;;;43.53;20.77;;;;;;;6.39;96.87;101035.63;5012246;28;20216;-77
2022/11/30 07:53:43;;;;;;;44.37;24.67;;;;;;;6.41;97.01;101044.28;5012463;28;20207;-75
2022/11/30 07:56:12;;;;;;;42.27;21.40;;;;;;;6.40;96.53;101053.78;5012127;28;20240;-75
2022/11/30 07:58:39;;;;;;;47.63;22.50;;;;;;;6.41;97.06;101062.44;5012442;28;20213;-75
2022/11/30 08:01:09;;;;;;;48.03;21.97;;;;;;;6.39;96.75;101057.25;5012177;28;20221;-75
2022/11/30 08:03:36;;;;;;;132.40;67.07;;;;;;;6.38;96.87;101060.66;5012237;28;20218;-75
2022/11/30 08:06:05;;;;;;;43.13;22.77;;;;;;;6.41;97.53;101045.16;5012096;28;20215;-75
2022/11/30 08:08:35;;;;;;;45.03;21.57;;;;;;;6.43;97.05;101042.56;5012164;28;20219;-75
2022/11/30 08:11:03;;;;;;;44.93;22.23;;;;;;;6.34;97.41;101038.16;5030266;23;20221;-75
2022/11/30 08:13:30;;;;;;;43.70;22.13;;;;;;;6.36;97.55;101037.34;5031892;28;20529;-75
2022/11/30 08:16:01;;;;;;;45.40;22.77;;;;;;;6.38;97.34;101044.25;5031616;28;20209;-75
2022/11/30 08:18:28;;;;;;;47.10;22.87;;;;;;;6.38;97.17;101041.66;5012134;28;20211;-75
2022/11/30 08:20:58;;;;;;;52.60;25.03;;;;;;;6.38;96.93;101045.13;5012163;28;20213;-75
2022/11/30 08:23:25;;;;;;;53.53;25.93;;;;;;;6.36;96.84;101055.50;5011944;28;20293;-75
2022/11/30 08:25:53;;;;;;;57.10;24.40;;;;;;;6.33;96.86;101041.63;5012308;28;20211;-76
2022/11/30 08:28:20;;;;;;;51.03;23.67;;;;;;;6.38;97.48;101045.13;5012175;28;20231;-76
2022/11/30 08:30:47;;;;;;;53.73;25.93;;;;;;;6.35;97.34;101045.09;5012735;28;20229;-76
2022/11/30 08:33:14;;;;;;;51.47;25.00;;;;;;;6.39;97.21;101052.06;5015849;28;20217;-76
2022/11/30 08:35:40;;;;;;;50.10;24.80;;;;;;;6.44;97.17;101055.56;5016080;28;20676;-76
2022/11/30 08:38:06;;;;;;;58.07;24.43;;;;;;;6.46;97.36;101065.94;5016142;28;20227;-76
2022/11/30 08:40:33;;;;;;;53.63;25.37;;;;;;;6.48;96.85;101070.28;5016074;28;20214;-76
2022/11/30 08:43:01;;;;;;;57.57;25.00;;;;;;;6.44;96.82;101071.13;5014627;28;20214;-76
2022/11/30 08:45:27;;;;;;;55.97;25.07;;;;;;;6.45;96.98;101072.84;5015306;28;20283;-76
2022/11/30 08:47:54;;;;;;;50.57;25.07;;;;;;;6.45;96.49;101077.16;5015845;28;20238;-76
2022/11/30 08:50:20;;;;;;;55.80;26.10;;;;;;;6.46;97.26;101082.38;5015619;28;20253;-76
2022/11/30 08:52:47;;;;;;;56.50;25.73;;;;;;;6.47;96.93;101078.06;5015426;28;20577;-76
2022/11/30 08:55:14;;;;;;;59.23;25.40;;;;;;;6.47;96.63;101086.69;5015375;28;20672;-76
2022/11/30 08:57:40;;;;;;;58.33;25.13;;;;;;;6.47;96.77;101083.25;5015310;28;20512;-76
2022/11/30 09:00:10;;;;;;;66.13;25.60;;;;;;;6.45;97.10;101085.81;5014907;28;20211;-76
2022/11/30 09:02:37;;;;;;;53.03;24.93;;;;;;;6.49;96.85;101079.78;5014625;28;20687;-76
2022/11/30 09:05:03;;;;;;;46.63;23.93;;;;;;;6.51;97.25;101082.41;5005484;28;20203;-76
2022/11/30 09:07:30;;;;;;;54.13;25.97;;;;;;;6.52;96.61;101086.72;5006719;28;20233;-75
2022/11/30 09:09:58;;;;;;;59.27;24.33;;;;;;;6.52;97.30;101085.03;5004589;28;20224;-80
2022/11/30 09:12:24;;;;;;;55.17;26.10;;;;;;;6.56;96.82;101091.06;5009659;28;20244;-79
2022/11/30 09:14:51;;;;;;;59.17;26.03;;;;;;;6.51;96.98;101088.44;5015444;28;20211;-80
2022/11/30 09:17:19;;;;;;;54.00;25.73;;;;;;;6.47;97.48;101089.28;5015022;28;20257;-80
2022/11/30 09:19:45;;;;;;;66.60;27.20;;;;;;;6.49;97.26;101091.91;5015057;28;20207;-80
2022/11/30 09:22:12;;;;;;;66.37;28.63;;;;;;;6.52;97.61;101084.13;5014912;28;20221;-80
2022/11/30 09:24:38;;;;;;;80.93;32.10;;;;;;;6.55;97.09;101089.34;5015300;28;20229;-80
2022/11/30 09:27:05;;;;;;;58.30;27.23;;;;;;;6.59;97.23;101093.72;5015197;28;20223;-80
2022/11/30 09:29:31;;;;;;;64.87;26.47;;;;;;;6.59;97.29;101101.50;5015067;28;20237;-80
2022/11/30 09:31:58;;;;;;;62.60;27.17;;;;;;;6.63;97.48;101087.69;5015116;28;20226;-81
2022/11/30 09:34:25;;;;;;;67.40;27.70;;;;;;;6.63;97.54;101092.88;5015379;28;20214;-80
2022/11/30 09:36:52;;;;;;;62.30;26.13;;;;;;;6.66;97.10;101097.19;5015250;28;20731;-81
2022/11/30 09:39:19;;;;;;;57.00;25.47;;;;;;;6.67;96.97;101099.81;5016127;28;20210;-81
2022/11/30 09:42:08;;;;;;;58.20;24.83;;;;;;;6.68;96.68;101101.56;5014199;28;20206;-81
2022/11/30 09:44:46;;;;;;;61.67;25.63;;;;;;;6.71;96.65;101105.91;5014801;28;20549;-81
2022/11/30 09:47:31;;;;;;;57.93;24.40;;;;;;;6.70;96.67;101107.63;5014280;28;20230;-81
2022/11/30 09:50:03;;;;;;;60.83;27.27;;;;;;;6.70;96.88;101107.63;5014449;28;20230;-82
2022/11/30 09:52:35;;;;;;;60.77;26.47;;;;;;;6.69;97.26;101105.03;5014558;28;20214;-81
2022/11/30 09:55:07;;;;;;;61.33;26.20;;;;;;;6.70;97.27;101102.44;5014721;28;20603;-82
2022/11/30 09:57:43;;;;;;;57.43;25.70;;;;;;;6.73;97.37;101104.19;5014316;28;20226;-82
2022/11/30 10:00:14;;;;;;;63.13;26.67;;;;;;;6.73;96.69;101094.66;5014603;28;20195;-81
2022/11/30 10:02:41;;;;;;;66.37;24.90;;;;;;;6.74;97.03;101101.63;5014402;28;20210;-81
2022/11/30 10:05:14;;;;;;;59.87;25.97;;;;;;;6.78;96.74;101102.50;5014413;28;20815;-81
2022/11/30 10:07:53;;;;;;;63.13;25.67;;;;;;;6.76;96.68;101110.28;5014098;28;20230;-81
2022/11/30 10:10:32;;;;;;;64.73;25.93;;;;;;;6.79;96.53;101113.75;5003201;28;20210;-81
2022/11/30 10:13:09;;;;;;;68.47;27.37;;;;;;;6.78;96.63;101112.88;5003896;28;20198;-82
2022/11/30 10:15:48;;;;;;;69.40;28.20;;;;;;;6.76;96.82;101107.69;5003248;28;20676;-81
2022/11/30 10:18:20;;;;;;;59.50;25.87;;;;;;;6.77;96.77;101100.75;5002813;28;20223;-80
2022/11/30 10:20:58;;;;;;;61.00;26.33;;;;;;;6.80;96.93;101107.69;5002874;28;20200;-81
2022/11/30 10:23:52;;;;;;;67.37;27.50;;;;;;;6.75;96.60;101105.94;5002216;28;20206;-80
2022/11/30 10:26:23;;;;;;;67.00;27.07;;;;;;;6.80;97.59;101102.50;4993815;28;20557;-80
2022/11/30 10:28:51;;;;;;;71.27;27.70;;;;;;;6.74;97.16;101105.94;4992939;28;20221;-80
2022/11/30 10:31:20;;;;;;;73.00;27.87;;;;;;;6.77;96.96;101095.56;4992970;28;20227;-81
2022/11/30 10:33:48;;;;;;;81.07;27.93;;;;;;;6.81;97.23;101097.31;5007979;28;20217;-81
2022/11/30 10:36:24;;;;;;;74.13;28.70;;;;;;;6.83;96.61;101097.34;5010375;28;20214;-80
2022/11/30 10:38:55;;;;;;;82.00;29.50;;;;;;;6.82;97.48;101111.16;5010181;28;20213;-80
2022/11/30 10:41:28;;;;;;;75.00;29.23;;;;;;;6.81;96.61;101101.66;5010583;28;20589;-80
2022/11/30 10:44:01;;;;;;;75.43;27.80;;;;;;;6.81;97.94;101092.13;5010647;28;20207;-82
2022/11/30 10:46:30;;;;;;;80.73;29.07;;;;;;;6.82;97.29;101090.41;5010993;28;20233;-82
2022/11/30 10:49:02;;;;;;;87.43;29.30;;;;;;;6.84;97.86;101089.56;5010577;28;20207;-82
2022/11/30 10:51:32;;;;;;;84.87;32.67;;;;;;;6.81;97.58;101088.69;5010440;28;20227;-83
2022/11/30 10:53:59;;;;;;;90.03;30.43;;;;;;;6.86;97.05;101090.44;5010853;28;20217;-84
2022/11/30 10:56:26;;;;;;;72.60;29.10;;;;;;;6.88;96.92;101095.66;5011447;28;20231;-82
2022/11/30 10:58:56;;;;;;;75.30;29.60;;;;;;;6.89;96.79;101092.19;5011082;28;20207;-82
2022/11/30 11:01:32;;;;;;;74.70;29.50;;;;;;;6.87;97.43;101097.38;5010234;28;20199;-82
2022/11/30 11:04:13;;;;;;;84.37;29.63;;;;;;;6.92;97.16;101089.63;5010606;28;20290;-82
2022/11/30 11:06:45;;;;;;;75.67;30.33;;;;;;;6.92;97.62;101103.47;5010062;28;20233;-83
2022/11/30 11:09:33;;;;;;;72.43;29.53;;;;;;;6.90;97.88;101100.00;5010418;28;20284;-83
2022/11/30 11:12:01;;;;;;;87.57;32.73;;;;;;;6.92;97.67;101100.00;5012087;28;20229;-83
2022/11/30 11:14:28;;;;;;;77.23;30.80;;;;;;;6.92;97.90;101102.59;5012459;28;20209;-81
2022/11/30 11:16:57;;;;;;;74.93;30.67;;;;;;;6.92;97.55;101103.47;5012579;28;20227;-84
2022/11/30 11:19:42;;;;;;;79.63;31.13;;;;;;;6.95;97.60;101100.00;5012919;28;20213;-82
2022/11/30 11:22:19;;;;;;;72.43;29.23;;;;;;;6.99;97.77;101109.56;5012681;28;20203;-83
2022/11/30 11:24:47;;;;;;;78.90;30.73;;;;;;;7.01;97.76;101112.16;5012387;28;20206;-83